Time;durP1;ratioP1;P1;durP2;ratioP2;P2;SDS_P1;SDS_P2;PMS_P1;PMS_P2;Temp;Humidity;BMP_temperature;BMP_pressure;BME280_temperature;BME280_humidity;BME280_pressure;Samples;Min_cycle;Max_cycle;Signal;HPM_P1;HPM_P2
2023/12/30 00:01:36;;;;;;;4.03;2.00;;;7.10;99.90;;;;;;5110498;28;20108;-70
2023/12/30 00:04:02;;;;;;;6.28;2.13;;;7.20;99.90;;;;;;5092397;28;20036;-70
2023/12/30 00:06:28;;;;;;;4.88;2.00;;;7.30;99.90;;;;;;5096722;28;20412;-73
2023/12/30 00:08:54;;;;;;;5.28;2.22;;;7.30;99.90;;;;;;5100878;28;20035;-69
2023/12/30 00:11:19;;;;;;;6.60;2.42;;;7.40;99.90;;;;;;5104322;28;20405;-70
2023/12/30 00:13:45;;;;;;;4.72;2.10;;;7.50;99.90;;;;;;5097859;28;20541;-69
2023/12/30 00:16:11;;;;;;;4.45;2.20;;;7.50;99.90;;;;;;5075937;28;20047;-69
2023/12/30 00:18:37;;;;;;;5.57;2.20;;;7.50;99.90;;;;;;5071874;28;20032;-69
2023/12/30 00:21:02;;;;;;;8.07;2.47;;;7.50;99.90;;;;;;5107935;28;20043;-70
2023/12/30 00:23:28;;;;;;;5.95;2.10;;;7.50;99.90;;;;;;5111524;28;20040;-73
2023/12/30 00:25:54;;;;;;;6.63;2.10;;;7.60;99.90;;;;;;5092684;28;20040;-69
2023/12/30 00:28:21;;;;;;;4.80;2.10;;;7.60;99.90;;;;;;5096139;28;20020;-70
2023/12/30 00:30:47;;;;;;;4.53;2.30;;;7.70;99.90;;;;;;5108569;28;20067;-68
2023/12/30 00:33:13;;;;;;;4.28;2.20;;;7.70;99.90;;;;;;5110666;28;20078;-68
2023/12/30 00:35:38;;;;;;;5.80;2.30;;;7.70;99.90;;;;;;5089378;28;20028;-68
2023/12/30 00:38:04;;;;;;;4.82;2.10;;;7.80;99.90;;;;;;5088521;28;20114;-68
2023/12/30 00:40:29;;;;;;;5.05;2.00;;;7.80;99.90;;;;;;5091962;28;20110;-72
2023/12/30 00:42:55;;;;;;;4.40;2.10;;;7.80;99.90;;;;;;5092641;28;20110;-67
2023/12/30 00:45:20;;;;;;;4.30;1.92;;;7.80;99.90;;;;;;5110543;28;20433;-68
2023/12/30 00:47:46;;;;;;;5.28;2.05;;;7.70;99.90;;;;;;5100587;28;20750;-68
2023/12/30 00:50:13;;;;;;;3.33;1.88;;;7.70;99.90;;;;;;5107890;28;20036;-67
2023/12/30 00:52:38;;;;;;;5.90;2.30;;;7.70;99.90;;;;;;5095582;28;20512;-68
2023/12/30 00:55:04;;;;;;;4.13;1.83;;;7.70;99.90;;;;;;5090766;28;20063;-67
2023/12/30 00:57:30;;;;;;;7.32;2.20;;;7.70;99.90;;;;;;5099857;28;20036;-71
2023/12/30 00:59:56;;;;;;;4.82;1.92;;;7.60;99.90;;;;;;5088164;28;20508;-66
2023/12/30 01:02:21;;;;;;;4.43;2.08;;;7.50;99.90;;;;;;5097868;28;20073;-68
2023/12/30 01:04:47;;;;;;;5.22;2.10;;;7.60;99.90;;;;;;5089564;28;20032;-68
2023/12/30 01:07:13;;;;;;;6.30;2.30;;;7.80;99.90;;;;;;5096732;28;20348;-68
2023/12/30 01:09:39;;;;;;;7.15;2.30;;;7.80;99.90;;;;;;5104306;28;20146;-67
2023/12/30 01:12:05;;;;;;;4.82;2.13;;;7.90;99.90;;;;;;5104239;28;20067;-68
2023/12/30 01:14:31;;;;;;;4.85;2.42;;;7.90;99.90;;;;;;5105186;28;20550;-73
2023/12/30 01:16:56;;;;;;;4.82;2.58;;;8.00;99.90;;;;;;5094760;28;20111;-69
2023/12/30 01:19:22;;;;;;;3.58;2.05;;;8.10;99.90;;;;;;5091015;28;20032;-70
2023/12/30 01:21:48;;;;;;;6.78;2.38;;;8.10;99.90;;;;;;5089005;28;20036;-71
2023/12/30 01:24:14;;;;;;;4.68;1.80;;;8.10;99.90;;;;;;5091375;28;20039;-70
2023/12/30 01:26:39;;;;;;;5.40;2.10;;;8.20;99.90;;;;;;5079377;28;20032;-70
2023/12/30 01:29:08;;;;;;;3.97;2.30;;;8.30;99.90;;;;;;5107881;28;20073;-69
2023/12/30 01:31:36;;;;;;;7.57;2.05;;;8.20;99.90;;;;;;5091396;28;20035;-73
2023/12/30 01:34:02;;;;;;;5.05;1.80;;;8.20;99.90;;;;;;5108917;28;20457;-69
2023/12/30 01:36:28;;;;;;;4.65;2.05;;;8.20;99.90;;;;;;5092202;28;20024;-71
2023/12/30 01:38:53;;;;;;;5.03;2.22;;;8.10;99.90;;;;;;5100207;28;20635;-70
2023/12/30 01:41:19;;;;;;;4.53;2.17;;;8.10;99.90;;;;;;5093750;28;20032;-70
2023/12/30 01:43:45;;;;;;;6.18;1.92;;;8.10;99.90;;;;;;5096777;28;20039;-70
2023/12/30 01:46:12;;;;;;;5.40;2.10;;;8.20;99.90;;;;;;5089907;28;20027;-69
2023/12/30 01:48:38;;;;;;;4.35;2.17;;;8.20;99.90;;;;;;5070791;28;20037;-71
2023/12/30 01:51:07;;;;;;;6.90;2.35;;;8.20;99.90;;;;;;5097287;28;20024;-70
2023/12/30 01:53:38;;;;;;;3.17;1.67;;;8.10;99.90;;;;;;5081602;28;20385;-72
2023/12/30 01:56:04;;;;;;;8.57;2.15;;;8.20;99.90;;;;;;5094865;28;20048;-70
2023/12/30 01:58:30;;;;;;;6.88;2.40;;;8.20;99.90;;;;;;5089670;28;20114;-69
2023/12/30 02:00:56;;;;;;;6.60;2.92;;;8.20;99.90;;;;;;5091892;28;20585;-70
2023/12/30 02:03:22;;;;;;;4.65;1.80;;;8.20;99.90;;;;;;5101197;28;20513;-70
2023/12/30 02:05:48;;;;;;;3.83;1.98;;;8.20;99.90;;;;;;5090138;28;20035;-70
2023/12/30 02:08:15;;;;;;;4.82;2.05;;;8.20;99.90;;;;;;5089330;28;20075;-69
2023/12/30 02:10:40;;;;;;;4.60;1.73;;;8.10;99.90;;;;;;5094331;28;20103;-70
2023/12/30 02:13:07;;;;;;;4.28;2.20;;;8.10;99.90;;;;;;5081754;28;20149;-70
2023/12/30 02:15:33;;;;;;;6.25;1.90;;;8.10;99.90;;;;;;5096950;28;20039;-70
2023/12/30 02:18:00;;;;;;;4.72;1.83;;;8.10;99.90;;;;;;5088188;28;20043;-69
2023/12/30 02:20:26;;;;;;;4.40;2.00;;;8.00;99.90;;;;;;5102262;28;20062;-71
2023/12/30 02:22:52;;;;;;;4.43;1.80;;;8.00;99.90;;;;;;5101144;28;20382;-69
2023/12/30 02:25:17;;;;;;;3.20;1.88;;;8.00;99.90;;;;;;5079585;28;20036;-70
2023/12/30 02:27:44;;;;;;;6.53;1.90;;;8.00;99.90;;;;;;5088161;28;20620;-71
2023/12/30 02:30:10;;;;;;;3.92;1.98;;;7.90;99.90;;;;;;5092523;28;20114;-70
2023/12/30 02:32:36;;;;;;;3.50;1.90;;;7.90;99.90;;;;;;5089540;28;20076;-73
2023/12/30 02:35:02;;;;;;;6.10;2.45;;;7.90;99.90;;;;;;5088959;28;20044;-70
2023/12/30 02:37:28;;;;;;;3.75;1.88;;;7.90;99.90;;;;;;5090590;28;20423;-70
2023/12/30 02:39:53;;;;;;;7.45;2.13;;;7.90;99.90;;;;;;5085239;28;20059;-70
2023/12/30 02:42:19;;;;;;;4.47;2.50;;;7.80;99.90;;;;;;5088354;28;20483;-69
2023/12/30 02:44:44;;;;;;;5.68;2.25;;;7.80;99.90;;;;;;5106608;28;20036;-69
2023/12/30 02:47:10;;;;;;;6.80;2.35;;;7.80;99.90;;;;;;5105641;28;20031;-69
2023/12/30 02:49:36;;;;;;;2.92;1.70;;;7.90;99.90;;;;;;5080654;28;20063;-72
2023/12/30 02:52:01;;;;;;;5.25;2.38;;;7.90;99.90;;;;;;5101797;28;20059;-69
2023/12/30 02:54:30;;;;;;;4.47;2.10;;;8.00;99.90;;;;;;5106618;28;20758;-69
2023/12/30 02:57:00;;;;;;;4.45;2.08;;;7.90;99.90;;;;;;5074192;28;20027;-69
2023/12/30 02:59:25;;;;;;;5.95;2.03;;;7.90;99.90;;;;;;5097687;28;20466;-70
2023/12/30 03:01:51;;;;;;;6.15;2.20;;;7.90;99.90;;;;;;5094466;28;20093;-69
2023/12/30 03:04:17;;;;;;;6.35;2.10;;;7.90;99.90;;;;;;5099991;28;20059;-69
2023/12/30 03:06:42;;;;;;;5.57;2.22;;;7.90;99.90;;;;;;5087547;28;20107;-70
2023/12/30 03:09:08;;;;;;;3.70;1.92;;;7.90;99.90;;;;;;5101106;28;20036;-70
2023/12/30 03:11:33;;;;;;;5.47;2.45;;;7.80;99.90;;;;;;5108195;28;20032;-70
2023/12/30 03:13:59;;;;;;;3.55;1.90;;;7.90;99.90;;;;;;5102226;28;20177;-69
2023/12/30 03:16:25;;;;;;;5.00;2.25;;;7.80;99.90;;;;;;5096933;28;20055;-69
2023/12/30 03:18:50;;;;;;;5.28;2.00;;;7.80;99.90;;;;;;5107992;28;20389;-69
2023/12/30 03:21:18;;;;;;;5.25;2.28;;;7.80;99.90;;;;;;5107710;28;20378;-69
2023/12/30 03:23:43;;;;;;;6.10;2.42;;;7.80;99.90;;;;;;5107997;28;20111;-69
2023/12/30 03:26:09;;;;;;;4.47;2.05;;;7.70;99.90;;;;;;5089902;28;20118;-69
2023/12/30 03:28:36;;;;;;;7.03;2.63;;;7.70;99.90;;;;;;5089227;28;20123;-70
2023/12/30 03:31:02;;;;;;;7.20;2.13;;;7.60;99.90;;;;;;5097904;28;20091;-69
2023/12/30 03:33:28;;;;;;;4.68;2.17;;;7.60;99.90;;;;;;5069895;28;20036;-71
2023/12/30 03:35:54;;;;;;;6.38;2.40;;;7.50;99.90;;;;;;5100471;28;20720;-70
2023/12/30 03:38:20;;;;;;;7.80;2.05;;;7.50;99.90;;;;;;5094951;28;20024;-69
2023/12/30 03:40:45;;;;;;;5.15;2.60;;;7.50;99.90;;;;;;5088529;28;20028;-69
2023/12/30 03:43:12;;;;;;;6.28;2.50;;;7.40;99.90;;;;;;5070367;28;20086;-67
2023/12/30 03:45:38;;;;;;;3.92;1.90;;;7.40;99.90;;;;;;5089097;28;20302;-71
2023/12/30 03:48:04;;;;;;;4.22;1.80;;;7.50;99.90;;;;;;5070119;28;20028;-70
2023/12/30 03:50:29;;;;;;;3.92;1.90;;;7.50;99.90;;;;;;5085276;28;20031;-70
2023/12/30 03:52:55;;;;;;;3.67;2.05;;;7.50;99.90;;;;;;5090381;28;20048;-68
2023/12/30 03:55:20;;;;;;;5.28;2.10;;;7.50;99.90;;;;;;5103161;28;20496;-69
2023/12/30 03:57:46;;;;;;;4.93;2.10;;;7.50;99.90;;;;;;5107482;28;20678;-69
2023/12/30 04:00:12;;;;;;;5.20;2.03;;;7.60;99.90;;;;;;5091896;28;20056;-69
2023/12/30 04:02:39;;;;;;;4.82;2.03;;;7.60;99.90;;;;;;5103111;28;20020;-70
2023/12/30 04:05:05;;;;;;;3.90;2.13;;;7.60;99.90;;;;;;5082316;28;20043;-69
2023/12/30 04:07:31;;;;;;;5.03;1.92;;;7.60;99.90;;;;;;5066206;28;20115;-68
2023/12/30 04:09:56;;;;;;;4.70;2.00;;;7.70;99.90;;;;;;5086583;28;20035;-70
2023/12/30 04:12:22;;;;;;;5.65;1.63;;;7.70;99.90;;;;;;5087923;28;20591;-70
2023/12/30 04:14:48;;;;;;;3.97;2.03;;;7.60;99.90;;;;;;5093495;28;20032;-70
2023/12/30 04:17:13;;;;;;;5.20;1.85;;;7.60;99.90;;;;;;5095218;28;20023;-69
2023/12/30 04:19:39;;;;;;;6.88;1.80;;;7.70;99.90;;;;;;5092396;28;20102;-69
2023/12/30 04:22:05;;;;;;;4.63;1.70;;;7.60;99.90;;;;;;5078192;28;20024;-69
2023/12/30 04:24:31;;;;;;;3.75;1.67;;;7.60;99.90;;;;;;5093410;28;20496;-69
2023/12/30 04:26:56;;;;;;;5.50;2.03;;;7.50;99.90;;;;;;5096216;28;20032;-70
2023/12/30 04:29:22;;;;;;;4.88;2.30;;;7.40;99.90;;;;;;5100894;28;20081;-70
2023/12/30 04:31:49;;;;;;;4.63;1.90;;;7.40;99.90;;;;;;5074014;28;20047;-70
2023/12/30 04:34:14;;;;;;;7.00;1.77;;;7.40;99.90;;;;;;5080300;28;21656;-69
2023/12/30 04:36:40;;;;;;;6.88;1.67;;;7.40;99.90;;;;;;5071733;28;20038;-69
2023/12/30 04:39:06;;;;;;;3.90;2.00;;;7.40;99.90;;;;;;5100884;28;20779;-68
2023/12/30 04:41:31;;;;;;;3.95;1.60;;;7.40;99.90;;;;;;5083805;28;20032;-69
2023/12/30 04:43:57;;;;;;;4.95;1.98;;;7.50;99.90;;;;;;5096172;28;20125;-70
2023/12/30 04:46:23;;;;;;;3.97;1.92;;;7.60;99.90;;;;;;5109674;28;20034;-71
2023/12/30 04:48:54;;;;;;;4.05;1.98;;;7.60;99.90;;;;;;5096154;28;20035;-70
2023/12/30 04:51:20;;;;;;;2.88;1.60;;;7.50;99.90;;;;;;5094964;28;20059;-69
2023/12/30 04:53:45;;;;;;;4.63;1.63;;;7.50;99.90;;;;;;5098805;28;20036;-73
2023/12/30 04:56:15;;;;;;;2.90;1.58;;;7.50;99.90;;;;;;5103099;28;20035;-69
2023/12/30 04:58:40;;;;;;;4.07;1.65;;;7.50;99.90;;;;;;5102226;28;20020;-68
2023/12/30 05:01:08;;;;;;;4.07;1.75;;;7.50;99.90;;;;;;5093836;28;20044;-69
2023/12/30 05:03:35;;;;;;;3.90;1.58;;;7.50;99.90;;;;;;5097758;28;20031;-69
2023/12/30 05:06:00;;;;;;;3.85;1.70;;;7.50;99.90;;;;;;5076691;28;20028;-69
2023/12/30 05:08:26;;;;;;;3.80;1.75;;;7.50;99.90;;;;;;5106299;28;20030;-70
2023/12/30 05:10:52;;;;;;;4.13;1.85;;;7.40;99.90;;;;;;5104852;28;20036;-69
2023/12/30 05:13:17;;;;;;;6.28;1.88;;;7.30;99.90;;;;;;5079887;28;20080;-69
2023/12/30 05:15:43;;;;;;;3.38;1.33;;;7.30;99.90;;;;;;5079227;28;20075;-70
2023/12/30 05:18:10;;;;;;;4.00;1.73;;;7.30;99.90;;;;;;5089725;28;20864;-70
2023/12/30 05:20:36;;;;;;;3.42;1.95;;;7.20;99.90;;;;;;5098193;28;20016;-70
2023/12/30 05:23:02;;;;;;;3.80;1.83;;;7.20;99.90;;;;;;5073400;28;20043;-69
2023/12/30 05:25:27;;;;;;;3.53;1.50;;;7.30;99.90;;;;;;5104402;28;20039;-69
2023/12/30 05:27:53;;;;;;;4.20;1.65;;;7.30;99.90;;;;;;5085830;28;20541;-70
2023/12/30 05:30:18;;;;;;;7.78;1.70;;;7.20;99.90;;;;;;5108061;28;20036;-69
2023/12/30 05:32:44;;;;;;;3.55;1.52;;;7.20;99.90;;;;;;5096303;28;20469;-69
2023/12/30 05:35:09;;;;;;;5.65;1.90;;;7.20;99.90;;;;;;5090515;28;20028;-70
2023/12/30 05:37:35;;;;;;;5.00;1.67;;;7.30;99.90;;;;;;5109138;28;20058;-68
2023/12/30 05:40:01;;;;;;;3.92;1.67;;;7.30;99.90;;;;;;5099507;28;20376;-69
2023/12/30 05:42:27;;;;;;;5.22;1.58;;;7.20;99.90;;;;;;5107487;28;20469;-69
2023/12/30 05:44:52;;;;;;;4.15;1.60;;;7.30;99.90;;;;;;5096726;28;20032;-73
2023/12/30 05:47:18;;;;;;;4.90;1.80;;;7.30;99.90;;;;;;5075780;28;20026;-70
2023/12/30 05:49:44;;;;;;;5.03;1.60;;;7.20;99.90;;;;;;5092448;28;20035;-70
2023/12/30 05:52:09;;;;;;;5.45;1.48;;;7.20;99.90;;;;;;5093883;28;20023;-69
2023/12/30 05:54:35;;;;;;;4.47;1.40;;;7.30;99.90;;;;;;5101020;28;20028;-69
2023/12/30 05:57:00;;;;;;;3.60;1.50;;;7.20;99.90;;;;;;5084987;28;20533;-69
2023/12/30 05:59:26;;;;;;;4.50;1.50;;;7.30;99.90;;;;;;5070928;28;20032;-69
2023/12/30 06:01:52;;;;;;;4.22;1.50;;;7.20;99.90;;;;;;5088618;28;20078;-70
2023/12/30 06:04:18;;;;;;;2.83;1.35;;;7.20;99.90;;;;;;5068429;28;20127;-70
2023/12/30 06:06:44;;;;;;;3.53;1.52;;;7.20;99.90;;;;;;5088881;28;20067;-70
2023/12/30 06:09:10;;;;;;;3.17;1.42;;;7.20;99.90;;;;;;5062523;28;20070;-70
2023/12/30 06:11:36;;;;;;;5.88;1.42;;;7.30;99.90;;;;;;5069243;28;20020;-70
2023/12/30 06:14:01;;;;;;;4.40;1.40;;;7.30;99.90;;;;;;5096320;28;20108;-69
2023/12/30 06:16:27;;;;;;;4.35;1.42;;;7.40;99.90;;;;;;5089413;28;20032;-70
2023/12/30 06:18:53;;;;;;;5.95;1.30;;;7.40;99.90;;;;;;5088538;28;20028;-73
2023/12/30 06:21:18;;;;;;;3.97;1.17;;;7.40;99.90;;;;;;5069908;28;20024;-71
2023/12/30 06:23:44;;;;;;;3.83;1.20;;;7.50;99.90;;;;;;5069966;28;20032;-70
2023/12/30 06:26:10;;;;;;;2.50;1.10;;;7.50;99.90;;;;;;5083467;28;20633;-70
2023/12/30 06:28:35;;;;;;;3.17;1.30;;;7.50;99.90;;;;;;5073457;28;20035;-69
2023/12/30 06:31:01;;;;;;;3.50;1.30;;;7.50;99.90;;;;;;5087541;28;20166;-70
2023/12/30 06:33:27;;;;;;;3.95;1.00;;;7.50;99.90;;;;;;5082565;28;20024;-70
2023/12/30 06:35:52;;;;;;;2.55;1.20;;;7.50;99.90;;;;;;5062848;28;20035;-73
2023/12/30 06:38:18;;;;;;;3.78;1.13;;;7.50;99.90;;;;;;5072587;28;20474;-70
2023/12/30 06:40:47;;;;;;;2.35;1.05;;;7.50;99.90;;;;;;5084392;28;20058;-69
2023/12/30 06:43:13;;;;;;;7.68;1.40;;;7.50;99.90;;;;;;5081941;28;20130;-70
2023/12/30 06:45:39;;;;;;;2.72;0.70;;;7.50;99.90;;;;;;5089125;28;20027;-71
2023/12/30 06:48:05;;;;;;;2.97;1.08;;;7.50;99.90;;;;;;5072314;28;20513;-70
2023/12/30 06:50:31;;;;;;;3.55;1.10;;;7.50;99.90;;;;;;5080014;28;20031;-69
2023/12/30 06:52:58;;;;;;;3.60;0.82;;;7.50;99.90;;;;;;5093936;28;20032;-70
2023/12/30 06:55:23;;;;;;;2.83;0.82;;;7.50;99.90;;;;;;5069729;28;20405;-68
2023/12/30 06:57:49;;;;;;;3.35;1.10;;;7.50;99.90;;;;;;5093395;28;20024;-69
2023/12/30 07:00:15;;;;;;;3.42;1.05;;;7.50;99.90;;;;;;5086985;28;20137;-69
2023/12/30 07:02:41;;;;;;;6.93;1.20;;;7.50;99.90;;;;;;5068977;28;20485;-69
2023/12/30 07:05:08;;;;;;;2.70;0.82;;;7.50;99.90;;;;;;5097418;28;20092;-69
2023/12/30 07:07:34;;;;;;;3.20;1.10;;;7.60;99.90;;;;;;5087102;28;20020;-69
2023/12/30 07:10:00;;;;;;;4.57;1.00;;;7.50;99.90;;;;;;5086613;28;20035;-68
2023/12/30 07:12:25;;;;;;;3.65;1.10;;;7.50;99.90;;;;;;5088392;28;20429;-69
2023/12/30 07:14:51;;;;;;;4.95;1.38;;;7.50;99.90;;;;;;5100372;28;20388;-69
2023/12/30 07:17:16;;;;;;;6.43;1.30;;;7.50;99.90;;;;;;5103944;28;20028;-69
2023/12/30 07:19:42;;;;;;;3.13;1.00;;;7.50;99.90;;;;;;5082772;28;20028;-68
2023/12/30 07:22:08;;;;;;;3.78;1.00;;;7.40;99.90;;;;;;5069354;28;20028;-69
2023/12/30 07:24:34;;;;;;;2.67;1.15;;;7.40;99.90;;;;;;5066360;28;20035;-68
2023/12/30 07:26:59;;;;;;;5.78;1.10;;;7.40;99.90;;;;;;5069446;28;20032;-69
2023/12/30 07:29:25;;;;;;;3.25;1.20;;;7.40;99.90;;;;;;5083252;28;20035;-70
2023/12/30 07:31:51;;;;;;;3.63;1.08;;;7.40;99.90;;;;;;5089028;28;20031;-68
2023/12/30 07:34:17;;;;;;;3.22;1.15;;;7.40;99.90;;;;;;5075318;28;20067;-68
2023/12/30 07:36:43;;;;;;;3.67;1.30;;;7.40;99.90;;;;;;5087430;28;20493;-69
2023/12/30 07:39:09;;;;;;;5.47;1.25;;;7.30;99.90;;;;;;5087113;28;20025;-68
2023/12/30 07:41:34;;;;;;;7.65;1.13;;;7.40;99.90;;;;;;5087377;28;20027;-69
2023/12/30 07:44:00;;;;;;;5.85;1.00;;;7.40;99.90;;;;;;5082554;28;20039;-68
2023/12/30 07:46:26;;;;;;;3.50;1.10;;;7.40;99.90;;;;;;5072994;28;20016;-68
2023/12/30 07:48:52;;;;;;;3.22;1.17;;;7.40;99.90;;;;;;5062822;28;20036;-68
2023/12/30 07:51:18;;;;;;;2.58;1.13;;;7.30;99.90;;;;;;5075418;28;20050;-70
2023/12/30 07:53:43;;;;;;;6.18;1.50;;;7.40;99.90;;;;;;5068186;28;20623;-68
2023/12/30 07:56:09;;;;;;;4.45;1.20;;;7.30;99.90;;;;;;5076229;28;20032;-68
2023/12/30 07:58:35;;;;;;;3.85;1.40;;;7.30;99.90;;;;;;5081632;28;20020;-69
2023/12/30 08:01:01;;;;;;;2.22;1.27;;;7.30;99.90;;;;;;5090543;28;20126;-67
2023/12/30 08:03:26;;;;;;;5.97;1.50;;;7.30;99.90;;;;;;5072453;28;20490;-68
2023/12/30 08:05:52;;;;;;;5.53;1.50;;;7.30;99.90;;;;;;5086355;28;20559;-69
2023/12/30 08:08:19;;;;;;;2.92;1.30;;;7.30;99.90;;;;;;5078600;28;20045;-68
2023/12/30 08:10:44;;;;;;;7.55;1.50;;;7.40;99.90;;;;;;5070929;28;20382;-68
2023/12/30 08:13:10;;;;;;;3.25;1.25;;;7.40;99.90;;;;;;5087105;28;20024;-68
2023/12/30 08:15:36;;;;;;;2.95;1.63;;;7.40;99.90;;;;;;5091202;28;20028;-69
2023/12/30 08:18:01;;;;;;;5.00;1.50;;;7.50;99.90;;;;;;5090702;28;20032;-67
2023/12/30 08:20:27;;;;;;;3.88;1.50;;;7.50;99.90;;;;;;5089186;28;20032;-68
2023/12/30 08:22:54;;;;;;;6.10;1.65;;;7.50;99.90;;;;;;5090691;28;20059;-69
2023/12/30 08:25:20;;;;;;;5.38;1.70;;;7.50;99.90;;;;;;5078108;28;20141;-68
2023/12/30 08:27:45;;;;;;;4.72;1.88;;;7.50;99.90;;;;;;5071300;28;20521;-66
2023/12/30 08:30:11;;;;;;;4.28;1.77;;;7.60;99.90;;;;;;5079513;28;20400;-66
2023/12/30 08:32:37;;;;;;;4.20;1.85;;;7.60;99.90;;;;;;5080047;28;20055;-67
2023/12/30 08:35:07;;;;;;;4.07;1.63;;;7.60;99.90;;;;;;5075035;28;20047;-68
2023/12/30 08:37:33;;;;;;;3.20;1.63;;;7.60;99.90;;;;;;5079583;28;20032;-68
2023/12/30 08:39:59;;;;;;;5.78;1.73;;;7.60;99.90;;;;;;5075072;28;20032;-71
2023/12/30 08:42:25;;;;;;;5.38;1.90;;;7.60;99.90;;;;;;5088551;28;20028;-67
2023/12/30 08:44:50;;;;;;;4.57;1.75;;;7.70;99.90;;;;;;5072274;28;20051;-66
2023/12/30 08:47:16;;;;;;;6.18;1.58;;;7.70;99.90;;;;;;5085417;28;20485;-66
2023/12/30 08:49:42;;;;;;;5.00;1.60;;;7.70;99.90;;;;;;5081542;28;20035;-67
2023/12/30 08:52:11;;;;;;;10.23;1.75;;;7.80;99.90;;;;;;5081306;28;20032;-68
2023/12/30 08:54:39;;;;;;;6.78;1.90;;;7.80;99.90;;;;;;5070686;28;20130;-66
2023/12/30 08:57:04;;;;;;;3.45;1.67;;;7.80;99.90;;;;;;5072607;28;20052;-66
2023/12/30 08:59:30;;;;;;;3.80;1.70;;;7.80;99.90;;;;;;5070537;28;20071;-65
2023/12/30 09:01:55;;;;;;;5.20;1.60;;;7.80;99.90;;;;;;5067957;28;20122;-64
2023/12/30 09:04:21;;;;;;;6.53;1.70;;;7.80;99.90;;;;;;5079198;28;20043;-62
2023/12/30 09:06:47;;;;;;;4.85;1.60;;;7.80;99.90;;;;;;5080068;28;20093;-64
2023/12/30 09:09:12;;;;;;;2.55;1.38;;;7.80;99.90;;;;;;5070221;28;20064;-65
2023/12/30 09:11:38;;;;;;;9.07;2.70;;;7.80;99.90;;;;;;5080163;28;20028;-64
2023/12/30 09:14:07;;;;;;;6.20;2.00;;;7.80;99.90;;;;;;5074462;28;20033;-63
2023/12/30 09:16:33;;;;;;;4.22;1.80;;;7.80;99.90;;;;;;5077491;28;20028;-63
2023/12/30 09:18:58;;;;;;;3.38;1.48;;;7.80;99.90;;;;;;5086387;28;20034;-64
2023/12/30 09:21:24;;;;;;;3.38;1.40;;;7.80;99.90;;;;;;5089233;28;20028;-64
2023/12/30 09:23:53;;;;;;;5.57;1.80;;;7.90;99.90;;;;;;5080069;28;20435;-63
2023/12/30 09:26:18;;;;;;;6.03;1.55;;;7.90;99.90;;;;;;5069252;28;20056;-64
2023/12/30 09:28:44;;;;;;;3.13;1.77;;;7.80;99.90;;;;;;5069826;28;20529;-64
2023/12/30 09:31:10;;;;;;;7.72;2.13;;;7.80;99.90;;;;;;5053067;28;20032;-66
2023/12/30 09:33:36;;;;;;;5.00;1.85;;;7.70;99.90;;;;;;5070538;28;20051;-63
2023/12/30 09:36:02;;;;;;;6.22;1.65;;;7.70;99.90;;;;;;5088026;28;20032;-68
2023/12/30 09:38:28;;;;;;;4.18;1.77;;;7.70;99.90;;;;;;5089652;28;20039;-64
2023/12/30 09:40:54;;;;;;;5.60;2.03;;;7.70;99.90;;;;;;5089992;28;20048;-63
2023/12/30 09:43:28;;;;;;;6.47;1.70;;;7.80;99.90;;;;;;5070942;28;20262;-63
2023/12/30 09:45:55;;;;;;;10.23;2.17;;;7.90;99.90;;;;;;5088792;28;20036;-65
2023/12/30 09:48:26;;;;;;;5.88;1.80;;;7.90;99.90;;;;;;5075877;28;20040;-66
2023/12/30 09:50:56;;;;;;;4.90;1.55;;;7.90;99.90;;;;;;5088945;28;20114;-66
2023/12/30 09:53:23;;;;;;;5.95;1.88;;;7.90;99.90;;;;;;5081206;28;20690;-65
2023/12/30 09:55:52;;;;;;;6.80;2.33;;;8.00;99.90;;;;;;5083369;28;20048;-67
2023/12/30 09:58:19;;;;;;;3.22;1.75;;;8.00;99.90;;;;;;5087952;28;20035;-66
2023/12/30 10:00:46;;;;;;;4.70;2.08;;;8.00;99.90;;;;;;5089085;28;20063;-67
2023/12/30 10:03:13;;;;;;;7.88;2.03;;;8.10;99.90;;;;;;5074310;28;20082;-65
2023/12/30 10:05:38;;;;;;;4.68;1.85;;;8.10;99.90;;;;;;5085121;28;20046;-66
2023/12/30 10:08:05;;;;;;;5.50;2.28;;;8.20;99.90;;;;;;5083836;28;20032;-70
2023/12/30 10:10:40;;;;;;;5.25;2.20;;;8.20;99.90;;;;;;5051271;28;20032;-65
2023/12/30 10:13:06;;;;;;;7.18;2.38;;;8.30;99.90;;;;;;5076295;28;20482;-70
2023/12/30 10:15:31;;;;;;;8.48;2.05;;;8.30;99.90;;;;;;5086020;28;20071;-65
2023/12/30 10:17:57;;;;;;;6.05;2.47;;;8.40;99.90;;;;;;5071068;28;20032;-68
2023/12/30 10:20:23;;;;;;;6.00;2.00;;;8.40;99.90;;;;;;5059463;28;20028;-69
2023/12/30 10:22:49;;;;;;;6.22;2.10;;;8.40;99.90;;;;;;5085237;28;20020;-69
2023/12/30 10:25:14;;;;;;;15.07;2.83;;;8.60;99.90;;;;;;5079907;28;20039;-66
2023/12/30 10:27:40;;;;;;;8.05;2.03;;;8.60;99.90;;;;;;5068613;28;20032;-66
2023/12/30 10:30:08;;;;;;;3.60;1.60;;;8.70;99.90;;;;;;5068389;28;20037;-70
2023/12/30 10:32:34;;;;;;;9.48;1.70;;;8.70;99.90;;;;;;5075499;28;20036;-66
2023/12/30 10:35:00;;;;;;;4.90;1.77;;;8.60;99.90;;;;;;5089051;28;20040;-67
2023/12/30 10:37:29;;;;;;;3.92;1.40;;;8.50;99.90;;;;;;5087627;28;20046;-67
2023/12/30 10:39:55;;;;;;;5.72;1.50;;;8.50;99.90;;;;;;5070190;28;20024;-67
2023/12/30 10:42:21;;;;;;;4.13;1.70;;;8.50;99.90;;;;;;5088192;28;20416;-66
2023/12/30 10:44:47;;;;;;;5.95;1.63;;;8.70;99.90;;;;;;5069979;28;20038;-66
2023/12/30 10:47:15;;;;;;;6.03;1.33;;;8.80;99.90;;;;;;5088193;28;20058;-66
2023/12/30 10:49:49;;;;;;;4.60;1.25;;;9.00;99.90;;;;;;5088871;28;20024;-65
2023/12/30 10:52:21;;;;;;;2.40;1.10;;;9.20;99.90;;;;;;5087872;28;20111;-66
2023/12/30 10:54:54;;;;;;;3.53;1.33;;;9.30;99.90;;;;;;5069003;28;20039;-67
2023/12/30 10:57:27;;;;;;;4.95;1.63;;;9.40;99.90;;;;;;5087993;28;20043;-66
2023/12/30 10:59:56;;;;;;;5.70;1.63;;;9.30;99.90;;;;;;5068210;28;20079;-67
2023/12/30 11:02:25;;;;;;;3.50;1.50;;;9.30;99.90;;;;;;5088013;28;20028;-67
2023/12/30 11:04:51;;;;;;;3.45;1.20;;;9.40;99.90;;;;;;5087370;28;20129;-66
2023/12/30 11:07:20;;;;;;;10.65;1.92;;;9.40;99.90;;;;;;5069605;28;20032;-67
2023/12/30 11:09:47;;;;;;;4.15;1.35;;;9.50;99.90;;;;;;5088328;28;20524;-66
2023/12/30 11:12:13;;;;;;;4.88;1.58;;;9.50;99.90;;;;;;5087503;28;20103;-67
2023/12/30 11:14:39;;;;;;;7.68;1.60;;;9.40;99.90;;;;;;5080375;28;20123;-68
2023/12/30 11:17:04;;;;;;;2.28;1.15;;;9.40;99.90;;;;;;5087586;28;20099;-67
2023/12/30 11:19:36;;;;;;;4.13;1.38;;;9.50;99.90;;;;;;5087823;28;20123;-68
2023/12/30 11:22:05;;;;;;;5.43;1.25;;;9.80;99.90;;;;;;5086858;28;20032;-67
2023/12/30 11:24:33;;;;;;;3.60;1.20;;;10.00;99.90;;;;;;5082474;28;20035;-66
2023/12/30 11:26:59;;;;;;;4.65;1.30;;;10.20;99.90;;;;;;5072181;28;20528;-67
2023/12/30 11:29:26;;;;;;;3.58;1.40;;;10.10;99.90;;;;;;5064171;28;20036;-70
2023/12/30 11:31:54;;;;;;;2.67;1.05;;;9.90;99.90;;;;;;5089063;28;20116;-67
2023/12/30 11:34:20;;;;;;;4.95;1.30;;;9.80;99.90;;;;;;5081309;28;20391;-69
2023/12/30 11:36:47;;;;;;;4.22;1.00;;;9.70;99.90;;;;;;5072273;28;20028;-67
2023/12/30 11:39:31;;;;;;;3.78;1.00;;;9.70;99.90;;;;;;5072437;28;20109;-68
2023/12/30 11:41:58;;;;;;;2.00;1.00;;;9.60;99.90;;;;;;5092060;28;20055;-70
2023/12/30 11:44:24;;;;;;;2.85;0.95;;;9.60;99.90;;;;;;5087385;28;20028;-66
2023/12/30 11:46:49;;;;;;;2.55;1.08;;;9.60;99.90;;;;;;5090196;28;20125;-71
2023/12/30 11:49:22;;;;;;;2.45;0.80;;;9.50;99.90;;;;;;5087592;28;20169;-68
2023/12/30 11:51:48;;;;;;;2.72;0.70;;;9.60;99.90;;;;;;5077180;28;20032;-70
2023/12/30 11:54:14;;;;;;;3.63;0.70;;;9.60;99.90;;;;;;5083361;28;20036;-74
2023/12/30 11:56:40;;;;;;;1.05;0.50;;;9.70;99.90;;;;;;5080801;28;20023;-69
2023/12/30 11:59:07;;;;;;;1.15;0.50;;;9.70;99.90;;;;;;5076679;28;20038;-68
2023/12/30 12:01:33;;;;;;;1.90;0.70;;;9.70;99.90;;;;;;5089103;28;20060;-69
2023/12/30 12:03:59;;;;;;;2.67;0.70;;;9.70;99.90;;;;;;5076843;28;20475;-68
2023/12/30 12:06:24;;;;;;;3.75;0.77;;;9.70;99.90;;;;;;5073480;28;20035;-69
2023/12/30 12:08:50;;;;;;;4.85;0.40;;;9.70;99.90;;;;;;5080859;28;20027;-68
2023/12/30 12:11:17;;;;;;;3.15;0.57;;;9.60;99.90;;;;;;5082779;28;20064;-68
2023/12/30 12:13:46;;;;;;;3.20;0.47;;;9.60;99.90;;;;;;5091294;28;20032;-68
2023/12/30 12:16:12;;;;;;;2.85;0.85;;;9.60;99.90;;;;;;5086791;28;20036;-72
2023/12/30 12:18:37;;;;;;;1.27;0.50;;;9.70;99.90;;;;;;5088368;28;20085;-67
2023/12/30 12:21:11;;;;;;;3.25;0.57;;;9.90;99.90;;;;;;5080731;28;20032;-70
2023/12/30 12:23:37;;;;;;;1.20;0.50;;;9.90;99.90;;;;;;5072880;28;20115;-69
2023/12/30 12:26:04;;;;;;;1.42;0.50;;;9.70;99.90;;;;;;5086717;28;20575;-66
2023/12/30 12:28:33;;;;;;;1.85;0.60;;;9.60;99.90;;;;;;5076774;28;20043;-67
2023/12/30 12:31:01;;;;;;;2.60;0.47;;;9.50;99.90;;;;;;5091558;28;20039;-68
2023/12/30 12:33:30;;;;;;;1.48;0.40;;;9.40;99.90;;;;;;5090302;28;20429;-67
2023/12/30 12:35:55;;;;;;;1.75;0.60;;;9.40;99.90;;;;;;5091443;28;20040;-66
2023/12/30 12:38:21;;;;;;;1.42;0.50;;;9.40;99.90;;;;;;5090860;28;20035;-66
2023/12/30 12:40:47;;;;;;;2.83;0.52;;;9.50;99.90;;;;;;5091303;28;20040;-69
2023/12/30 12:43:13;;;;;;;1.15;0.50;;;9.50;99.90;;;;;;5090692;28;20062;-73
2023/12/30 12:45:38;;;;;;;2.88;0.47;;;9.50;99.90;;;;;;5090529;28;20059;-69
2023/12/30 12:48:05;;;;;;;3.10;0.50;;;9.60;99.90;;;;;;5091242;28;20034;-66
2023/12/30 12:50:31;;;;;;;1.25;0.50;;;9.70;99.90;;;;;;5090352;28;20024;-67
2023/12/30 12:52:57;;;;;;;1.30;0.30;;;9.90;99.90;;;;;;5090477;28;20051;-68